createdAt,value
2023-04-02T00:00:10.994Z,5.38
2023-04-02T00:03:05.868Z,5.10
2023-04-02T00:05:50.191Z,4.70
2023-04-02T00:08:41.035Z,5.20
2023-04-02T00:11:09.476Z,5.85
2023-04-02T00:13:52.326Z,5.10
2023-04-02T00:16:23.905Z,5.28
2023-04-02T00:18:54.488Z,5.28
2023-04-02T00:21:25.959Z,5.22
2023-04-02T00:23:55.666Z,4.30
2023-04-02T00:26:29.322Z,4.53
2023-04-02T00:28:56.387Z,5.22
2023-04-02T00:31:24.538Z,4.95
2023-04-02T00:33:52.444Z,4.40
2023-04-02T00:36:26.675Z,5.22
2023-04-02T00:38:56.173Z,4.53
2023-04-02T00:41:29.779Z,4.82
2023-04-02T00:46:34.598Z,4.22
2023-04-02T00:49:27.158Z,5.10
2023-04-02T00:51:58.996Z,4.50
2023-04-02T00:54:31.282Z,4.00
2023-04-02T00:56:59.042Z,4.22
2023-04-02T00:59:35.966Z,4.70
2023-04-02T01:02:28.754Z,4.80
2023-04-02T01:04:57.415Z,4.73
2023-04-02T01:07:56.467Z,3.88
2023-04-02T01:10:35.467Z,4.60
2023-04-02T01:13:33.829Z,4.47
2023-04-02T01:16:15.151Z,4.30
2023-04-02T01:18:50.348Z,5.68
2023-04-02T01:21:28.243Z,4.22
2023-04-02T01:24:05.643Z,6.07
2023-04-02T01:26:58.518Z,5.35
2023-04-02T01:29:27.799Z,4.65
2023-04-02T01:32:00.670Z,5.28
2023-04-02T01:34:29.082Z,4.57
2023-04-02T01:37:23.398Z,5.25
2023-04-02T01:40:16.303Z,5.22
2023-04-02T01:43:18.656Z,4.67
2023-04-02T01:45:46.393Z,5.55
2023-04-02T01:48:17.519Z,5.50
2023-04-02T01:50:47.797Z,4.85
2023-04-02T01:53:17.822Z,4.38
2023-04-02T01:55:54.462Z,3.95
2023-04-02T01:58:28.805Z,4.30
2023-04-02T02:01:06.240Z,4.47
2023-04-02T02:03:34.385Z,4.13
2023-04-02T02:06:02.871Z,5.20
2023-04-02T02:08:38.577Z,5.45
2023-04-02T02:11:07.762Z,4.57
2023-04-02T02:13:34.877Z,4.20
2023-04-02T02:16:04.219Z,4.60
2023-04-02T02:18:34.038Z,3.03
2023-04-02T02:21:08.040Z,2.38
2023-04-02T02:23:35.290Z,3.15
2023-04-02T02:26:06.231Z,3.53
2023-04-02T02:28:42.546Z,3.53
2023-04-02T02:31:33.211Z,2.75
2023-04-02T02:34:08.958Z,3.35
2023-04-02T02:36:53.330Z,4.25
2023-04-02T02:39:51.931Z,3.88
2023-04-02T02:42:31.717Z,4.32
2023-04-02T02:45:01.412Z,4.78
2023-04-02T02:47:31.821Z,4.45
2023-04-02T02:50:03.479Z,4.88
2023-04-02T02:52:34.875Z,5.60
2023-04-02T02:55:05.331Z,5.32
2023-04-02T02:57:40.864Z,6.50
2023-04-02T03:00:11.674Z,5.95
2023-04-02T03:02:41.520Z,6.25
2023-04-02T03:05:10.049Z,6.88
2023-04-02T03:07:38.373Z,6.82
2023-04-02T03:10:17.757Z,6.78
2023-04-02T03:12:56.473Z,6.95
2023-04-02T03:15:46.474Z,7.15
2023-04-02T03:18:26.063Z,6.15
2023-04-02T03:21:16.297Z,6.22
2023-04-02T03:23:49.418Z,5.10
2023-04-02T03:26:22.922Z,4.22
2023-04-02T03:29:03.920Z,4.47
2023-04-02T03:31:41.594Z,5.20
2023-04-02T03:34:18.613Z,5.13
2023-04-02T03:36:56.846Z,5.40
2023-04-02T03:39:42.667Z,4.35
2023-04-02T03:42:26.402Z,4.78
2023-04-02T03:44:56.459Z,5.05
2023-04-02T03:47:36.824Z,5.60
2023-04-02T03:50:23.545Z,4.57
2023-04-02T03:52:51.013Z,5.13
2023-04-02T03:55:24.166Z,5.15
2023-04-02T03:58:07.791Z,5.28
2023-04-02T04:00:50.420Z,3.85
2023-04-02T04:03:28.788Z,4.18
2023-04-02T04:06:23.307Z,4.50
2023-04-02T04:09:07.225Z,4.28
2023-04-02T04:11:39.418Z,4.40
2023-04-02T04:14:14.154Z,4.35
2023-04-02T04:17:16.658Z,4.80
2023-04-02T04:19:46.278Z,4.00
2023-04-02T04:22:33.738Z,4.75
2023-04-02T04:25:04.734Z,4.40
2023-04-02T04:27:54.730Z,3.47
2023-04-02T04:30:42.033Z,4.57
2023-04-02T04:33:22.842Z,4.35
2023-04-02T04:35:55.738Z,4.78
2023-04-02T04:41:24.390Z,5.30
2023-04-02T04:44:09.923Z,3.75
2023-04-02T04:47:02.361Z,4.22
2023-04-02T04:49:32.493Z,4.68
2023-04-02T04:52:22.106Z,4.15
2023-04-02T04:54:49.344Z,4.57
2023-04-02T04:57:37.478Z,3.85
2023-04-02T05:00:37.585Z,3.92
2023-04-02T05:03:31.731Z,3.60
2023-04-02T05:06:05.960Z,3.70
2023-04-02T05:08:37.686Z,3.58
2023-04-02T05:11:15.930Z,4.23
2023-04-02T05:14:17.150Z,4.28
2023-04-02T05:17:00.837Z,4.05
2023-04-02T05:19:49.097Z,4.78
2023-04-02T05:22:30.601Z,3.85
2023-04-02T05:25:24.887Z,5.32
2023-04-02T05:28:14.087Z,4.15
2023-04-02T05:30:56.418Z,4.47
2023-04-02T05:33:27.728Z,4.63
2023-04-02T05:36:11.774Z,4.20
2023-04-02T05:38:44.189Z,4.18
2023-04-02T05:41:32.327Z,4.03
2023-04-02T05:44:08.631Z,4.10
2023-04-02T05:46:43.568Z,4.43
2023-04-02T05:49:41.639Z,4.40
2023-04-02T05:52:15.456Z,4.53
2023-04-02T05:54:48.974Z,4.78
2023-04-02T05:57:29.621Z,4.53
2023-04-02T06:00:15.500Z,4.07
2023-04-02T06:02:54.928Z,4.60
2023-04-02T06:05:33.165Z,4.05
2023-04-02T06:08:19.457Z,4.80
2023-04-02T06:11:02.481Z,3.80
2023-04-02T06:13:29.964Z,4.37
2023-04-02T06:15:57.431Z,4.72
2023-04-02T06:18:27.695Z,4.68
2023-04-02T06:20:55.826Z,4.72
2023-04-02T06:23:34.075Z,5.05
2023-04-02T06:26:22.855Z,4.47
2023-04-02T06:28:59.834Z,5.22
2023-04-02T06:31:42.538Z,4.30
2023-04-02T06:34:17.383Z,4.23
2023-04-02T06:36:45.881Z,5.28
2023-04-02T06:39:20.276Z,4.00
2023-04-02T06:41:53.221Z,4.50
2023-04-02T06:44:22.896Z,4.32
2023-04-02T06:47:02.895Z,5.30
2023-04-02T06:49:34.402Z,4.43
2023-04-02T06:52:04.295Z,5.68
2023-04-02T06:54:31.503Z,5.45
2023-04-02T06:56:59.185Z,5.57
2023-04-02T06:59:29.925Z,6.10
2023-04-02T07:02:16.846Z,5.57
2023-04-02T07:04:44.160Z,6.20
2023-04-02T07:07:11.988Z,4.95
2023-04-02T07:09:39.030Z,4.85
2023-04-02T07:12:20.520Z,5.32
2023-04-02T07:14:48.062Z,4.93
2023-04-02T07:17:20.296Z,6.13
2023-04-02T07:19:49.726Z,6.55
2023-04-02T07:22:18.831Z,6.05
2023-04-02T07:24:46.629Z,6.15
2023-04-02T07:27:15.015Z,5.65
2023-04-02T07:29:43.021Z,6.85
2023-04-02T07:32:11.731Z,4.93
2023-04-02T07:34:40.673Z,5.70
2023-04-02T07:37:09.895Z,4.82
2023-04-02T07:39:38.383Z,3.83
2023-04-02T07:42:08.201Z,3.92
2023-04-02T07:44:35.335Z,3.42
2023-04-02T07:47:02.956Z,3.97
2023-04-02T07:49:30.475Z,4.97
2023-04-02T07:51:57.981Z,4.35
2023-04-02T07:54:27.165Z,3.65
2023-04-02T07:56:54.779Z,4.05
2023-04-02T07:59:22.370Z,4.15
2023-04-02T08:01:51.686Z,3.90
2023-04-02T08:04:21.733Z,4.18
2023-04-02T08:06:50.580Z,3.67
2023-04-02T08:09:17.827Z,3.75
2023-04-02T08:11:46.836Z,3.33
2023-04-02T08:14:14.416Z,3.97
2023-04-02T08:16:47.733Z,4.05
2023-04-02T08:19:15.587Z,4.43
2023-04-02T08:21:43.242Z,3.80
2023-04-02T08:24:10.403Z,3.85
2023-04-02T08:26:38.139Z,4.00
2023-04-02T08:29:05.454Z,5.80
2023-04-02T08:31:32.938Z,4.07
2023-04-02T08:34:00.101Z,3.75
2023-04-02T08:36:35.589Z,3.85
2023-04-02T08:39:04.645Z,3.97
2023-04-02T08:41:38.783Z,4.03
2023-04-02T08:44:32.397Z,4.00
2023-04-02T08:47:03.271Z,2.60
2023-04-02T08:49:30.309Z,3.67
2023-04-02T08:51:57.940Z,3.17
2023-04-02T08:54:43.650Z,3.00
2023-04-02T08:57:34.753Z,2.83
2023-04-02T09:00:37.949Z,3.42
2023-04-02T09:03:27.402Z,3.22
2023-04-02T09:05:56.159Z,3.83
2023-04-02T09:08:29.728Z,3.45
2023-04-02T09:11:06.939Z,4.15
2023-04-02T09:13:38.901Z,4.18
2023-04-02T09:16:12.092Z,3.97
2023-04-02T09:18:41.012Z,3.35
2023-04-02T09:21:22.566Z,3.60
2023-04-02T09:23:50.263Z,3.80
2023-04-02T09:26:30.216Z,3.67
2023-04-02T09:29:26.560Z,4.45
2023-04-02T09:32:18.647Z,2.55
2023-04-02T09:34:46.363Z,3.67
2023-04-02T09:37:25.514Z,2.88
2023-04-02T09:40:09.765Z,3.17
2023-04-02T09:42:38.255Z,2.45
2023-04-02T09:45:23.746Z,2.25
2023-04-02T09:47:52.625Z,1.98
2023-04-02T09:50:26.626Z,2.28
2023-04-02T09:52:54.453Z,2.15
2023-04-02T09:55:24.221Z,1.92
2023-04-02T09:58:07.203Z,2.60
2023-04-02T10:03:04.191Z,1.70
2023-04-02T10:05:40.459Z,1.80
2023-04-02T10:08:26.261Z,2.20
2023-04-02T10:10:56.870Z,2.30
2023-04-02T10:13:42.449Z,1.63
2023-04-02T10:16:13.097Z,1.85
2023-04-02T10:18:53.883Z,1.88
2023-04-02T10:21:37.374Z,2.50
2023-04-02T10:24:13.325Z,2.30
2023-04-02T10:26:55.711Z,2.10
2023-04-02T10:30:02.734Z,2.80
2023-04-02T10:32:49.118Z,1.73
2023-04-02T10:35:31.415Z,1.50
2023-04-02T10:38:42.684Z,1.52
2023-04-02T10:41:32.670Z,1.33
2023-04-02T10:44:22.408Z,1.15
2023-04-02T10:47:04.460Z,1.13
2023-04-02T10:49:47.043Z,1.10
2023-04-02T10:52:17.053Z,1.33
2023-04-02T10:54:53.930Z,1.45
2023-04-02T10:57:39.969Z,1.35
2023-04-02T11:00:16.756Z,1.55
2023-04-02T11:03:06.039Z,1.77
2023-04-02T11:05:44.431Z,2.20
2023-04-02T11:08:26.686Z,1.60
2023-04-02T11:11:28.204Z,1.60
2023-04-02T11:14:00.015Z,2.08
2023-04-02T11:16:28.251Z,2.35
2023-04-02T11:19:16.972Z,2.70
2023-04-02T11:21:57.276Z,2.67
2023-04-02T11:24:30.167Z,1.92
2023-04-02T11:27:16.046Z,1.70
2023-04-02T11:29:55.238Z,2.65
2023-04-02T11:32:25.574Z,1.73
2023-04-02T11:35:05.765Z,2.67
2023-04-02T11:37:39.417Z,2.33
2023-04-02T11:40:13.922Z,2.10
2023-04-02T11:42:42.513Z,2.03
2023-04-02T11:45:21.916Z,2.33
2023-04-02T11:48:01.796Z,2.53
2023-04-02T11:50:47.379Z,2.75
2023-04-02T11:53:22.010Z,2.35
2023-04-02T11:55:58.875Z,2.42
2023-04-02T11:58:44.592Z,2.60
2023-04-02T12:01:30.077Z,2.17
2023-04-02T12:04:10.613Z,3.30
2023-04-02T12:06:47.225Z,3.25
2023-04-02T12:09:28.984Z,3.45
2023-04-02T12:11:58.911Z,3.05
2023-04-02T12:14:43.610Z,2.55
2023-04-02T12:17:27.088Z,3.15
2023-04-02T12:19:57.896Z,2.90
2023-04-02T12:22:31.124Z,2.70
2023-04-02T12:25:07.309Z,3.42
2023-04-02T12:27:38.291Z,3.28
2023-04-02T12:30:32.477Z,3.22
2023-04-02T12:35:43.729Z,3.47
2023-04-02T12:38:23.025Z,2.78
2023-04-02T12:40:56.878Z,3.58
2023-04-02T12:43:25.620Z,3.60
2023-04-02T12:45:59.961Z,3.78
2023-04-02T12:48:28.010Z,4.00
2023-04-02T12:50:57.152Z,4.82
2023-04-02T12:53:37.779Z,5.35
2023-04-02T12:56:05.604Z,5.43
2023-04-02T12:58:42.966Z,6.30
2023-04-02T13:01:11.516Z,5.47
2023-04-02T13:03:38.764Z,5.63
2023-04-02T13:06:27.141Z,5.47
2023-04-02T13:08:55.141Z,5.95
2023-04-02T13:11:23.426Z,6.10
2023-04-02T13:13:50.798Z,5.70
2023-04-02T13:16:18.132Z,5.90
2023-04-02T13:18:47.528Z,6.47
2023-04-02T13:21:14.786Z,7.53
2023-04-02T13:23:42.316Z,6.22
2023-04-02T13:26:29.529Z,7.20
2023-04-02T13:29:24.163Z,6.53
2023-04-02T13:31:54.513Z,8.15
2023-04-02T13:34:21.994Z,7.25
2023-04-02T13:36:49.763Z,7.25
2023-04-02T13:39:16.983Z,7.53
2023-04-02T13:41:47.067Z,7.50
2023-04-02T13:44:23.116Z,7.50
2023-04-02T13:46:51.965Z,7.55
2023-04-02T13:49:21.632Z,7.15
2023-04-02T13:52:00.708Z,8.35
2023-04-02T13:54:48.932Z,9.77
2023-04-02T13:57:16.938Z,8.95
2023-04-02T13:59:44.061Z,10.77
2023-04-02T14:02:18.983Z,8.68
2023-04-02T14:04:51.101Z,7.53
2023-04-02T14:07:48.254Z,9.20
2023-04-02T14:10:22.110Z,8.65
2023-04-02T14:13:33.238Z,8.15
2023-04-02T14:16:04.291Z,7.47
2023-04-02T14:18:53.044Z,7.07
2023-04-02T14:21:27.735Z,7.75
2023-04-02T14:24:18.782Z,6.38
2023-04-02T14:27:15.874Z,6.78
2023-04-02T14:29:53.424Z,5.97
2023-04-02T14:32:51.973Z,6.25
2023-04-02T14:35:22.180Z,7.13
2023-04-02T14:38:25.502Z,7.00
2023-04-02T14:43:26.249Z,8.00
2023-04-02T14:46:01.272Z,9.68
2023-04-02T14:48:50.436Z,7.78
2023-04-02T14:51:27.420Z,9.25
2023-04-02T14:54:20.813Z,8.13
2023-04-02T14:57:00.668Z,7.95
2023-04-02T14:59:52.246Z,8.70
2023-04-02T15:02:44.813Z,8.93
2023-04-02T15:05:17.826Z,8.32
2023-04-02T15:07:57.872Z,7.72
2023-04-02T15:10:34.649Z,7.15
2023-04-02T15:13:08.159Z,7.22
2023-04-02T15:15:50.777Z,8.02
2023-04-02T15:18:18.862Z,7.78
2023-04-02T15:20:55.433Z,10.32
2023-04-02T15:23:56.164Z,24.65
2023-04-02T15:26:54.813Z,8.35
2023-04-02T15:29:28.738Z,7.30
2023-04-02T15:32:17.095Z,5.30
2023-04-02T15:35:31.642Z,5.47
2023-04-02T15:38:05.871Z,5.45
2023-04-02T15:41:08.459Z,5.07
2023-04-02T15:43:47.060Z,6.10
2023-04-02T15:46:22.163Z,4.90
2023-04-02T15:49:02.175Z,5.95
2023-04-02T15:51:44.767Z,5.43
2023-04-02T15:54:27.036Z,5.10
2023-04-02T15:56:54.506Z,5.10
2023-04-02T15:59:40.891Z,5.40
2023-04-02T16:02:22.423Z,4.57
2023-04-02T16:05:03.932Z,4.80
2023-04-02T16:07:53.282Z,5.70
2023-04-02T16:10:40.214Z,4.63
2023-04-02T16:13:32.986Z,6.05
2023-04-02T16:16:43.274Z,5.20
2023-04-02T16:19:29.638Z,4.30
2023-04-02T16:22:17.985Z,4.93
2023-04-02T16:24:53.270Z,5.80
2023-04-02T16:27:40.907Z,4.18
2023-04-02T16:30:24.165Z,3.38
2023-04-02T16:33:07.829Z,3.40
2023-04-02T16:35:43.469Z,4.50
2023-04-02T16:38:28.591Z,3.13
2023-04-02T16:41:16.555Z,3.47
2023-04-02T16:44:07.889Z,4.05
2023-04-02T16:46:39.698Z,4.63
2023-04-02T16:49:26.914Z,3.95
2023-04-02T16:52:18.483Z,4.03
2023-04-02T16:55:03.781Z,3.20
2023-04-02T16:57:41.425Z,3.00
2023-04-02T17:00:21.240Z,3.28
2023-04-02T17:02:55.158Z,2.72
2023-04-02T17:05:44.108Z,3.10
2023-04-02T17:08:24.568Z,2.67
2023-04-02T17:11:01.171Z,2.88
2023-04-02T17:13:39.605Z,4.10
2023-04-02T17:16:13.155Z,3.72
2023-04-02T17:18:43.668Z,3.80
2023-04-02T17:21:14.783Z,2.75
2023-04-02T17:26:24.459Z,2.33
2023-04-02T17:28:53.536Z,3.03
2023-04-02T17:31:24.186Z,2.13
2023-04-02T17:33:51.774Z,1.95
2023-04-02T17:36:33.384Z,1.98
2023-04-02T17:39:22.522Z,1.80
2023-04-02T17:42:20.793Z,2.55
2023-04-02T17:45:03.043Z,2.70
2023-04-02T17:48:05.143Z,2.63
2023-04-02T17:50:54.394Z,1.77
2023-04-02T17:53:27.364Z,2.53
2023-04-02T17:56:37.144Z,2.70
2023-04-02T17:59:21.730Z,2.10
2023-04-02T18:02:33.732Z,1.35
2023-04-02T18:05:17.033Z,1.73
2023-04-02T18:08:14.565Z,2.20
2023-04-02T18:10:56.543Z,3.05
2023-04-02T18:13:59.257Z,3.20
2023-04-02T18:17:06.163Z,2.45
2023-04-02T18:19:49.201Z,1.23
2023-04-02T18:22:51.039Z,1.40
2023-04-02T18:25:24.804Z,2.10
2023-04-02T18:28:12.918Z,1.13
2023-04-02T18:31:06.434Z,1.40
2023-04-02T18:33:39.770Z,1.58
2023-04-02T18:36:17.757Z,1.75
2023-04-02T18:38:53.289Z,1.10
2023-04-02T18:41:38.061Z,1.42
2023-04-02T18:44:10.219Z,2.22
2023-04-02T18:46:54.911Z,1.52
2023-04-02T18:49:31.821Z,1.60
2023-04-02T18:52:02.844Z,1.63
2023-04-02T18:54:41.977Z,1.48
2023-04-02T18:57:25.675Z,1.67
2023-04-02T19:00:28.520Z,1.70
2023-04-02T19:03:24.091Z,1.30
2023-04-02T19:06:03.244Z,1.65
2023-04-02T19:08:48.327Z,1.60
2023-04-02T19:11:28.443Z,1.13
2023-04-02T19:14:01.046Z,1.80
2023-04-02T19:16:31.042Z,1.05
2023-04-02T19:19:14.251Z,1.10
2023-04-02T19:22:07.998Z,1.48
2023-04-02T19:24:56.957Z,1.20
2023-04-02T19:27:29.979Z,1.30
2023-04-02T19:29:57.293Z,1.90
2023-04-02T19:32:39.092Z,1.45
2023-04-02T19:35:23.079Z,1.90
2023-04-02T19:38:11.681Z,1.33
2023-04-02T19:40:51.587Z,1.23
2023-04-02T19:43:18.591Z,1.17
2023-04-02T19:45:48.392Z,1.30
2023-04-02T19:48:21.771Z,1.10
2023-04-02T19:50:49.937Z,1.52
2023-04-02T19:53:17.451Z,1.70
2023-04-02T19:55:45.647Z,1.20
2023-04-02T19:58:32.186Z,1.20
2023-04-02T20:01:00.825Z,1.48
2023-04-02T20:03:29.314Z,1.50
2023-04-02T20:05:59.425Z,1.27
2023-04-02T20:08:27.343Z,1.70
2023-04-02T20:10:55.463Z,0.90
2023-04-02T20:13:22.597Z,0.82
2023-04-02T20:15:51.391Z,1.73
2023-04-02T20:18:18.834Z,2.28
2023-04-02T20:20:47.502Z,1.75
2023-04-02T20:23:16.386Z,2.00
2023-04-02T20:25:52.985Z,1.08
2023-04-02T20:28:24.534Z,1.45
2023-04-02T20:30:55.677Z,1.70
2023-04-02T20:33:24.724Z,1.80
2023-04-02T20:35:52.536Z,1.55
2023-04-02T20:38:19.728Z,1.13
2023-04-02T20:40:52.773Z,0.82
2023-04-02T20:43:19.960Z,0.93
2023-04-02T20:45:58.014Z,1.13
2023-04-02T20:48:27.635Z,1.15
2023-04-02T20:50:54.970Z,1.20
2023-04-02T20:53:22.033Z,1.15
2023-04-02T20:55:49.629Z,1.15
2023-04-02T20:58:18.037Z,0.88
2023-04-02T21:00:45.725Z,0.80
2023-04-02T21:03:12.822Z,0.98
2023-04-02T21:05:47.406Z,1.27
2023-04-02T21:08:14.640Z,1.02
2023-04-02T21:10:42.153Z,0.82
2023-04-02T21:13:09.202Z,1.10
2023-04-02T21:15:43.024Z,1.13
2023-04-02T21:18:12.728Z,0.80
2023-04-02T21:20:40.031Z,0.80
2023-04-02T21:23:07.058Z,0.93
2023-04-02T21:25:34.490Z,1.17
2023-04-02T21:28:01.652Z,0.85
2023-04-02T21:30:28.941Z,1.20
2023-04-02T21:32:56.175Z,1.05
2023-04-02T21:35:25.581Z,1.35
2023-04-02T21:37:52.593Z,1.92
2023-04-02T21:40:20.237Z,1.60
2023-04-02T21:42:47.459Z,1.33
2023-04-02T21:45:14.974Z,2.58
2023-04-02T21:47:41.966Z,1.27
2023-04-02T21:50:09.742Z,1.40
2023-04-02T21:52:37.034Z,2.10
2023-04-02T21:55:04.889Z,0.65
2023-04-02T21:57:31.916Z,1.35
2023-04-02T21:59:59.629Z,2.45
2023-04-02T22:02:26.598Z,0.80
2023-04-02T22:04:54.189Z,0.93
2023-04-02T22:07:21.409Z,1.27
2023-04-02T22:09:48.776Z,1.10
2023-04-02T22:12:15.697Z,1.42
2023-04-02T22:14:43.057Z,0.95
2023-04-02T22:17:10.171Z,1.60
2023-04-02T22:19:37.616Z,0.90
2023-04-02T22:22:04.591Z,1.20
2023-04-02T22:24:32.020Z,1.88
2023-04-02T22:26:58.935Z,1.77
2023-04-02T22:29:26.579Z,1.55
2023-04-02T22:31:53.554Z,1.20
2023-04-02T22:34:21.333Z,0.95
2023-04-02T22:36:48.311Z,2.03
2023-04-02T22:39:17.080Z,1.85
2023-04-02T22:41:44.147Z,0.93
2023-04-02T22:44:14.434Z,1.00
2023-04-02T22:46:41.605Z,1.13
2023-04-02T22:49:11.009Z,1.38
2023-04-02T22:51:38.091Z,1.00
2023-04-02T22:54:05.658Z,1.10
2023-04-02T22:56:33.205Z,1.00
2023-04-02T22:59:01.019Z,1.33
2023-04-02T23:01:32.429Z,1.13
2023-04-02T23:04:00.070Z,1.08
2023-04-02T23:06:27.861Z,1.23
2023-04-02T23:08:55.460Z,1.08
2023-04-02T23:11:27.754Z,0.93
2023-04-02T23:13:57.423Z,0.70
2023-04-02T23:16:27.134Z,0.98
2023-04-02T23:18:55.844Z,0.68
2023-04-02T23:21:23.821Z,1.02
2023-04-02T23:23:51.498Z,1.33
2023-04-02T23:26:31.835Z,1.15
2023-04-02T23:29:00.603Z,1.00
2023-04-02T23:31:28.599Z,0.82
2023-04-02T23:33:56.160Z,1.00
2023-04-02T23:36:24.471Z,1.00
2023-04-02T23:38:57.426Z,0.93
2023-04-02T23:41:26.726Z,0.90
2023-04-02T23:43:55.958Z,0.93
2023-04-02T23:46:24.088Z,0.80
2023-04-02T23:48:52.269Z,0.82
2023-04-02T23:51:20.023Z,1.13
2023-04-02T23:53:48.212Z,1.08
2023-04-02T23:56:15.375Z,1.10
2023-04-02T23:58:42.754Z,1.55
